sensor_id;sensor_type;location;lat;lon;timestamp;P1;durP1;ratioP1;P2;durP2;ratioP2
77350;SDS011;66420;50.246;14.320;2024-03-29T00:01:29;4.68;;;1.25;;
77350;SDS011;66420;50.246;14.320;2024-03-29T00:04:14;2.90;;;1.50;;
77350;SDS011;66420;50.246;14.320;2024-03-29T00:06:59;4.97;;;1.45;;
77350;SDS011;66420;50.246;14.320;2024-03-29T00:09:44;2.88;;;1.33;;
77350;SDS011;66420;50.246;14.320;2024-03-29T00:12:29;3.78;;;1.30;;
77350;SDS011;66420;50.246;14.320;2024-03-29T00:15:14;4.82;;;1.40;;
77350;SDS011;66420;50.246;14.320;2024-03-29T00:17:59;2.40;;;1.23;;
77350;SDS011;66420;50.246;14.320;2024-03-29T00:20:44;3.40;;;1.50;;
77350;SDS011;66420;50.246;14.320;2024-03-29T00:23:29;3.85;;;1.67;;
77350;SDS011;66420;50.246;14.320;2024-03-29T00:26:13;6.78;;;2.70;;
77350;SDS011;66420;50.246;14.320;2024-03-29T00:28:57;3.70;;;1.85;;
77350;SDS011;66420;50.246;14.320;2024-03-29T00:31:42;3.72;;;1.83;;
77350;SDS011;66420;50.246;14.320;2024-03-29T00:34:27;3.40;;;1.33;;
77350;SDS011;66420;50.246;14.320;2024-03-29T00:37:11;4.97;;;1.48;;
77350;SDS011;66420;50.246;14.320;2024-03-29T00:39:56;2.63;;;1.13;;
77350;SDS011;66420;50.246;14.320;2024-03-29T00:42:41;2.22;;;1.23;;
77350;SDS011;66420;50.246;14.320;2024-03-29T00:45:26;2.40;;;1.20;;
77350;SDS011;66420;50.246;14.320;2024-03-29T00:48:13;2.55;;;1.25;;
77350;SDS011;66420;50.246;14.320;2024-03-29T00:50:59;3.28;;;1.40;;
77350;SDS011;66420;50.246;14.320;2024-03-29T00:53:43;3.10;;;1.48;;
77350;SDS011;66420;50.246;14.320;2024-03-29T00:56:28;3.80;;;1.35;;
77350;SDS011;66420;50.246;14.320;2024-03-29T00:59:13;2.58;;;1.20;;
77350;SDS011;66420;50.246;14.320;2024-03-29T01:01:58;3.30;;;1.40;;
77350;SDS011;66420;50.246;14.320;2024-03-29T01:04:43;5.93;;;1.50;;
77350;SDS011;66420;50.246;14.320;2024-03-29T01:07:27;3.60;;;1.27;;
77350;SDS011;66420;50.246;14.320;2024-03-29T01:10:12;2.20;;;1.15;;
77350;SDS011;66420;50.246;14.320;2024-03-29T01:12:57;2.22;;;1.08;;
77350;SDS011;66420;50.246;14.320;2024-03-29T01:15:41;3.47;;;1.42;;
77350;SDS011;66420;50.246;14.320;2024-03-29T01:18:26;3.22;;;1.15;;
77350;SDS011;66420;50.246;14.320;2024-03-29T01:21:12;2.33;;;1.10;;
77350;SDS011;66420;50.246;14.320;2024-03-29T01:23:57;3.28;;;1.15;;
77350;SDS011;66420;50.246;14.320;2024-03-29T01:26:41;3.58;;;1.30;;
77350;SDS011;66420;50.246;14.320;2024-03-29T01:29:26;3.15;;;1.42;;
77350;SDS011;66420;50.246;14.320;2024-03-29T01:32:12;3.90;;;1.33;;
77350;SDS011;66420;50.246;14.320;2024-03-29T01:34:56;3.17;;;1.30;;
77350;SDS011;66420;50.246;14.320;2024-03-29T01:37:41;3.65;;;1.67;;
77350;SDS011;66420;50.246;14.320;2024-03-29T01:40:26;5.53;;;2.15;;
77350;SDS011;66420;50.246;14.320;2024-03-29T01:43:11;3.28;;;1.33;;
77350;SDS011;66420;50.246;14.320;2024-03-29T01:45:56;4.32;;;1.60;;
77350;SDS011;66420;50.246;14.320;2024-03-29T01:48:42;5.47;;;1.50;;
77350;SDS011;66420;50.246;14.320;2024-03-29T01:51:26;2.72;;;1.25;;
77350;SDS011;66420;50.246;14.320;2024-03-29T01:54:12;3.55;;;1.48;;
77350;SDS011;66420;50.246;14.320;2024-03-29T01:56:57;3.40;;;1.60;;
77350;SDS011;66420;50.246;14.320;2024-03-29T01:59:42;4.05;;;1.30;;
77350;SDS011;66420;50.246;14.320;2024-03-29T02:02:29;3.95;;;1.55;;
77350;SDS011;66420;50.246;14.320;2024-03-29T02:05:14;4.68;;;1.40;;
77350;SDS011;66420;50.246;14.320;2024-03-29T02:07:59;3.53;;;1.48;;
77350;SDS011;66420;50.246;14.320;2024-03-29T02:10:47;4.68;;;1.90;;
77350;SDS011;66420;50.246;14.320;2024-03-29T02:13:32;8.90;;;2.40;;
77350;SDS011;66420;50.246;14.320;2024-03-29T02:16:17;6.85;;;2.20;;
77350;SDS011;66420;50.246;14.320;2024-03-29T02:19:02;5.57;;;2.33;;
77350;SDS011;66420;50.246;14.320;2024-03-29T02:21:48;5.32;;;2.15;;
77350;SDS011;66420;50.246;14.320;2024-03-29T02:24:35;6.18;;;2.17;;
77350;SDS011;66420;50.246;14.320;2024-03-29T02:27:20;4.85;;;1.70;;
77350;SDS011;66420;50.246;14.320;2024-03-29T02:30:05;4.15;;;1.80;;
77350;SDS011;66420;50.246;14.320;2024-03-29T02:32:50;5.90;;;1.80;;
77350;SDS011;66420;50.246;14.320;2024-03-29T02:35:34;3.67;;;1.42;;
77350;SDS011;66420;50.246;14.320;2024-03-29T02:38:20;5.13;;;1.92;;
77350;SDS011;66420;50.246;14.320;2024-03-29T02:41:04;5.35;;;1.98;;
77350;SDS011;66420;50.246;14.320;2024-03-29T02:43:50;3.60;;;1.70;;
77350;SDS011;66420;50.246;14.320;2024-03-29T02:46:35;4.88;;;2.17;;
77350;SDS011;66420;50.246;14.320;2024-03-29T02:49:20;6.22;;;1.80;;
77350;SDS011;66420;50.246;14.320;2024-03-29T02:52:05;4.32;;;1.77;;
77350;SDS011;66420;50.246;14.320;2024-03-29T02:54:50;3.97;;;1.90;;
77350;SDS011;66420;50.246;14.320;2024-03-29T02:57:36;5.35;;;2.10;;
77350;SDS011;66420;50.246;14.320;2024-03-29T03:00:22;5.53;;;1.83;;
77350;SDS011;66420;50.246;14.320;2024-03-29T03:03:07;6.30;;;1.85;;
77350;SDS011;66420;50.246;14.320;2024-03-29T03:05:52;4.35;;;1.85;;
77350;SDS011;66420;50.246;14.320;2024-03-29T03:08:39;3.90;;;1.73;;
77350;SDS011;66420;50.246;14.320;2024-03-29T03:11:42;4.45;;;1.50;;
77350;SDS011;66420;50.246;14.320;2024-03-29T03:14:27;6.45;;;1.85;;
77350;SDS011;66420;50.246;14.320;2024-03-29T03:17:12;5.43;;;2.03;;
77350;SDS011;66420;50.246;14.320;2024-03-29T03:19:57;5.18;;;2.15;;
77350;SDS011;66420;50.246;14.320;2024-03-29T03:22:42;7.03;;;2.42;;
77350;SDS011;66420;50.246;14.320;2024-03-29T03:25:27;6.40;;;2.63;;
77350;SDS011;66420;50.246;14.320;2024-03-29T03:28:12;7.25;;;3.00;;
77350;SDS011;66420;50.246;14.320;2024-03-29T03:30:56;8.68;;;3.72;;
77350;SDS011;66420;50.246;14.320;2024-03-29T03:33:41;9.93;;;4.35;;
77350;SDS011;66420;50.246;14.320;2024-03-29T03:36:26;8.40;;;3.33;;
77350;SDS011;66420;50.246;14.320;2024-03-29T03:39:11;7.85;;;3.35;;
77350;SDS011;66420;50.246;14.320;2024-03-29T03:41:56;7.95;;;3.05;;
77350;SDS011;66420;50.246;14.320;2024-03-29T03:44:41;5.60;;;2.78;;
77350;SDS011;66420;50.246;14.320;2024-03-29T03:47:26;5.57;;;2.63;;
77350;SDS011;66420;50.246;14.320;2024-03-29T03:50:11;6.25;;;2.67;;
77350;SDS011;66420;50.246;14.320;2024-03-29T03:52:57;7.85;;;2.65;;
77350;SDS011;66420;50.246;14.320;2024-03-29T03:55:42;8.13;;;2.20;;
77350;SDS011;66420;50.246;14.320;2024-03-29T03:58:27;8.55;;;2.95;;
77350;SDS011;66420;50.246;14.320;2024-03-29T04:01:12;6.90;;;2.90;;
77350;SDS011;66420;50.246;14.320;2024-03-29T04:03:57;5.38;;;2.42;;
77350;SDS011;66420;50.246;14.320;2024-03-29T04:06:42;4.97;;;2.97;;
77350;SDS011;66420;50.246;14.320;2024-03-29T04:09:26;5.95;;;2.60;;
77350;SDS011;66420;50.246;14.320;2024-03-29T04:12:11;5.20;;;2.30;;
77350;SDS011;66420;50.246;14.320;2024-03-29T04:14:56;8.85;;;3.53;;
77350;SDS011;66420;50.246;14.320;2024-03-29T04:17:41;9.35;;;4.13;;
77350;SDS011;66420;50.246;14.320;2024-03-29T04:20:25;12.85;;;4.38;;
77350;SDS011;66420;50.246;14.320;2024-03-29T04:23:10;11.77;;;4.95;;
77350;SDS011;66420;50.246;14.320;2024-03-29T04:25:56;9.02;;;5.25;;
77350;SDS011;66420;50.246;14.320;2024-03-29T04:28:41;13.23;;;5.32;;
77350;SDS011;66420;50.246;14.320;2024-03-29T04:31:26;11.52;;;5.10;;
77350;SDS011;66420;50.246;14.320;2024-03-29T04:34:11;10.77;;;5.18;;
77350;SDS011;66420;50.246;14.320;2024-03-29T04:36:56;7.50;;;3.92;;
77350;SDS011;66420;50.246;14.320;2024-03-29T04:39:42;6.53;;;3.38;;
77350;SDS011;66420;50.246;14.320;2024-03-29T04:42:27;6.78;;;3.20;;
77350;SDS011;66420;50.246;14.320;2024-03-29T04:45:12;5.35;;;2.95;;
77350;SDS011;66420;50.246;14.320;2024-03-29T04:47:57;15.20;;;6.03;;
77350;SDS011;66420;50.246;14.320;2024-03-29T04:50:42;9.18;;;4.32;;
77350;SDS011;66420;50.246;14.320;2024-03-29T04:53:27;11.05;;;4.28;;
77350;SDS011;66420;50.246;14.320;2024-03-29T04:56:12;10.40;;;4.20;;
77350;SDS011;66420;50.246;14.320;2024-03-29T04:58:57;10.27;;;5.00;;
77350;SDS011;66420;50.246;14.320;2024-03-29T05:01:43;9.05;;;3.75;;
77350;SDS011;66420;50.246;14.320;2024-03-29T05:04:34;7.97;;;3.33;;
77350;SDS011;66420;50.246;14.320;2024-03-29T05:07:19;8.05;;;3.40;;
77350;SDS011;66420;50.246;14.320;2024-03-29T05:10:04;6.75;;;3.00;;
77350;SDS011;66420;50.246;14.320;2024-03-29T05:12:51;8.43;;;3.15;;
77350;SDS011;66420;50.246;14.320;2024-03-29T05:15:36;5.88;;;3.20;;
77350;SDS011;66420;50.246;14.320;2024-03-29T05:18:21;3.67;;;1.95;;
77350;SDS011;66420;50.246;14.320;2024-03-29T05:21:06;4.45;;;1.95;;
77350;SDS011;66420;50.246;14.320;2024-03-29T05:23:51;5.50;;;2.30;;
77350;SDS011;66420;50.246;14.320;2024-03-29T05:26:36;6.50;;;2.03;;
77350;SDS011;66420;50.246;14.320;2024-03-29T05:29:21;3.17;;;1.70;;
77350;SDS011;66420;50.246;14.320;2024-03-29T05:32:09;3.50;;;1.63;;
77350;SDS011;66420;50.246;14.320;2024-03-29T05:34:53;3.25;;;1.40;;
77350;SDS011;66420;50.246;14.320;2024-03-29T05:37:38;3.28;;;1.50;;
77350;SDS011;66420;50.246;14.320;2024-03-29T05:40:22;3.83;;;1.42;;
77350;SDS011;66420;50.246;14.320;2024-03-29T05:43:09;3.13;;;1.40;;
77350;SDS011;66420;50.246;14.320;2024-03-29T05:45:54;4.25;;;1.30;;
77350;SDS011;66420;50.246;14.320;2024-03-29T05:48:39;2.08;;;1.10;;
77350;SDS011;66420;50.246;14.320;2024-03-29T05:51:24;3.08;;;1.27;;
77350;SDS011;66420;50.246;14.320;2024-03-29T05:54:09;3.28;;;1.33;;
77350;SDS011;66420;50.246;14.320;2024-03-29T05:56:54;3.03;;;1.60;;
77350;SDS011;66420;50.246;14.320;2024-03-29T05:59:39;2.85;;;1.38;;
77350;SDS011;66420;50.246;14.320;2024-03-29T06:02:23;3.45;;;1.20;;
77350;SDS011;66420;50.246;14.320;2024-03-29T06:05:08;4.95;;;1.45;;
77350;SDS011;66420;50.246;14.320;2024-03-29T06:07:54;3.67;;;1.30;;
77350;SDS011;66420;50.246;14.320;2024-03-29T06:10:39;2.63;;;1.00;;
77350;SDS011;66420;50.246;14.320;2024-03-29T06:13:24;3.42;;;1.27;;
77350;SDS011;66420;50.246;14.320;2024-03-29T06:16:34;2.05;;;0.95;;
77350;SDS011;66420;50.246;14.320;2024-03-29T06:19:38;2.38;;;1.00;;
77350;SDS011;66420;50.246;14.320;2024-03-29T06:22:23;4.90;;;1.20;;
77350;SDS011;66420;50.246;14.320;2024-03-29T06:25:08;2.40;;;1.17;;
77350;SDS011;66420;50.246;14.320;2024-03-29T06:27:53;2.60;;;1.02;;
77350;SDS011;66420;50.246;14.320;2024-03-29T06:30:40;2.72;;;1.30;;
77350;SDS011;66420;50.246;14.320;2024-03-29T06:33:25;2.45;;;1.20;;
77350;SDS011;66420;50.246;14.320;2024-03-29T06:36:10;3.30;;;1.20;;
77350;SDS011;66420;50.246;14.320;2024-03-29T06:38:54;2.95;;;1.25;;
77350;SDS011;66420;50.246;14.320;2024-03-29T06:41:39;2.72;;;1.25;;
77350;SDS011;66420;50.246;14.320;2024-03-29T06:44:24;3.75;;;1.40;;
77350;SDS011;66420;50.246;14.320;2024-03-29T06:47:09;2.85;;;1.40;;
77350;SDS011;66420;50.246;14.320;2024-03-29T06:49:54;2.78;;;1.17;;
77350;SDS011;66420;50.246;14.320;2024-03-29T06:52:39;2.60;;;1.15;;
77350;SDS011;66420;50.246;14.320;2024-03-29T06:55:24;3.65;;;1.38;;
77350;SDS011;66420;50.246;14.320;2024-03-29T06:58:09;2.05;;;1.08;;
77350;SDS011;66420;50.246;14.320;2024-03-29T07:00:54;3.35;;;1.38;;
77350;SDS011;66420;50.246;14.320;2024-03-29T07:03:40;3.38;;;1.30;;
77350;SDS011;66420;50.246;14.320;2024-03-29T07:06:25;2.88;;;1.20;;
77350;SDS011;66420;50.246;14.320;2024-03-29T07:09:09;3.40;;;1.15;;
77350;SDS011;66420;50.246;14.320;2024-03-29T07:11:54;3.60;;;1.42;;
77350;SDS011;66420;50.246;14.320;2024-03-29T07:14:39;2.65;;;1.13;;
77350;SDS011;66420;50.246;14.320;2024-03-29T07:17:24;2.83;;;1.15;;
77350;SDS011;66420;50.246;14.320;2024-03-29T07:20:09;2.53;;;1.30;;
77350;SDS011;66420;50.246;14.320;2024-03-29T07:22:54;2.67;;;1.05;;
77350;SDS011;66420;50.246;14.320;2024-03-29T07:25:39;3.50;;;1.20;;
77350;SDS011;66420;50.246;14.320;2024-03-29T07:28:23;3.13;;;1.25;;
77350;SDS011;66420;50.246;14.320;2024-03-29T07:31:08;2.00;;;0.90;;
77350;SDS011;66420;50.246;14.320;2024-03-29T07:33:53;2.75;;;0.80;;
77350;SDS011;66420;50.246;14.320;2024-03-29T07:36:38;2.42;;;0.70;;
77350;SDS011;66420;50.246;14.320;2024-03-29T07:39:24;2.15;;;0.75;;
77350;SDS011;66420;50.246;14.320;2024-03-29T07:42:08;2.15;;;0.73;;
77350;SDS011;66420;50.246;14.320;2024-03-29T07:44:53;1.75;;;0.80;;
77350;SDS011;66420;50.246;14.320;2024-03-29T07:47:38;1.67;;;0.60;;
77350;SDS011;66420;50.246;14.320;2024-03-29T07:50:23;1.65;;;0.65;;
77350;SDS011;66420;50.246;14.320;2024-03-29T07:53:08;3.30;;;0.70;;
77350;SDS011;66420;50.246;14.320;2024-03-29T07:55:53;1.35;;;0.70;;
77350;SDS011;66420;50.246;14.320;2024-03-29T07:58:40;1.83;;;0.70;;
77350;SDS011;66420;50.246;14.320;2024-03-29T08:01:24;2.03;;;0.77;;
77350;SDS011;66420;50.246;14.320;2024-03-29T08:04:09;4.03;;;0.98;;
77350;SDS011;66420;50.246;14.320;2024-03-29T08:06:53;2.13;;;0.90;;
77350;SDS011;66420;50.246;14.320;2024-03-29T08:09:38;2.40;;;1.10;;
77350;SDS011;66420;50.246;14.320;2024-03-29T08:12:23;1.58;;;0.73;;
77350;SDS011;66420;50.246;14.320;2024-03-29T08:15:08;2.70;;;0.80;;
77350;SDS011;66420;50.246;14.320;2024-03-29T08:17:52;3.67;;;1.02;;
77350;SDS011;66420;50.246;14.320;2024-03-29T08:20:37;2.03;;;0.70;;
77350;SDS011;66420;50.246;14.320;2024-03-29T08:23:23;2.47;;;0.80;;
77350;SDS011;66420;50.246;14.320;2024-03-29T08:26:07;3.50;;;0.98;;
77350;SDS011;66420;50.246;14.320;2024-03-29T08:28:52;3.33;;;0.85;;
77350;SDS011;66420;50.246;14.320;2024-03-29T08:31:37;4.07;;;0.80;;
77350;SDS011;66420;50.246;14.320;2024-03-29T08:34:21;3.35;;;1.00;;
77350;SDS011;66420;50.246;14.320;2024-03-29T08:37:06;3.38;;;1.00;;
77350;SDS011;66420;50.246;14.320;2024-03-29T08:39:51;2.55;;;1.10;;
77350;SDS011;66420;50.246;14.320;2024-03-29T08:42:36;2.65;;;0.98;;
77350;SDS011;66420;50.246;14.320;2024-03-29T08:45:22;2.47;;;0.90;;
77350;SDS011;66420;50.246;14.320;2024-03-29T08:48:07;2.50;;;0.82;;
77350;SDS011;66420;50.246;14.320;2024-03-29T08:50:55;2.15;;;0.82;;
77350;SDS011;66420;50.246;14.320;2024-03-29T08:53:40;1.83;;;0.90;;
77350;SDS011;66420;50.246;14.320;2024-03-29T08:56:25;2.42;;;0.73;;
77350;SDS011;66420;50.246;14.320;2024-03-29T08:59:09;1.85;;;0.82;;
77350;SDS011;66420;50.246;14.320;2024-03-29T09:01:55;3.28;;;0.82;;
77350;SDS011;66420;50.246;14.320;2024-03-29T09:04:49;2.00;;;0.80;;
77350;SDS011;66420;50.246;14.320;2024-03-29T09:07:34;1.70;;;0.70;;
77350;SDS011;66420;50.246;14.320;2024-03-29T09:10:19;2.10;;;0.95;;
77350;SDS011;66420;50.246;14.320;2024-03-29T09:13:04;2.15;;;0.65;;
77350;SDS011;66420;50.246;14.320;2024-03-29T09:15:51;2.50;;;0.68;;
77350;SDS011;66420;50.246;14.320;2024-03-29T09:18:36;2.05;;;0.68;;
77350;SDS011;66420;50.246;14.320;2024-03-29T09:21:20;2.92;;;0.85;;
77350;SDS011;66420;50.246;14.320;2024-03-29T09:24:05;1.98;;;1.10;;
77350;SDS011;66420;50.246;14.320;2024-03-29T09:26:51;2.00;;;0.80;;
77350;SDS011;66420;50.246;14.320;2024-03-29T09:29:36;3.20;;;0.90;;
77350;SDS011;66420;50.246;14.320;2024-03-29T09:32:21;2.63;;;0.70;;
77350;SDS011;66420;50.246;14.320;2024-03-29T09:35:07;2.00;;;0.73;;
77350;SDS011;66420;50.246;14.320;2024-03-29T09:37:52;2.10;;;0.68;;
77350;SDS011;66420;50.246;14.320;2024-03-29T09:40:37;1.27;;;0.60;;
77350;SDS011;66420;50.246;14.320;2024-03-29T09:43:22;1.65;;;0.60;;
77350;SDS011;66420;50.246;14.320;2024-03-29T09:46:08;1.85;;;0.60;;
77350;SDS011;66420;50.246;14.320;2024-03-29T09:48:55;2.85;;;0.80;;
77350;SDS011;66420;50.246;14.320;2024-03-29T09:51:40;3.97;;;0.80;;
77350;SDS011;66420;50.246;14.320;2024-03-29T09:54:30;4.78;;;0.70;;
77350;SDS011;66420;50.246;14.320;2024-03-29T09:57:15;2.72;;;0.73;;
77350;SDS011;66420;50.246;14.320;2024-03-29T10:00:01;2.30;;;0.70;;
77350;SDS011;66420;50.246;14.320;2024-03-29T10:02:53;1.88;;;0.50;;
77350;SDS011;66420;50.246;14.320;2024-03-29T10:05:40;1.63;;;0.68;;
77350;SDS011;66420;50.246;14.320;2024-03-29T10:08:26;3.97;;;0.80;;
77350;SDS011;66420;50.246;14.320;2024-03-29T10:11:11;1.70;;;0.80;;
77350;SDS011;66420;50.246;14.320;2024-03-29T10:14:00;1.90;;;0.80;;
77350;SDS011;66420;50.246;14.320;2024-03-29T10:16:47;1.95;;;0.60;;
77350;SDS011;66420;50.246;14.320;2024-03-29T10:19:32;2.35;;;1.08;;
77350;SDS011;66420;50.246;14.320;2024-03-29T10:22:16;2.95;;;0.80;;
77350;SDS011;66420;50.246;14.320;2024-03-29T10:25:01;0.85;;;0.57;;
77350;SDS011;66420;50.246;14.320;2024-03-29T10:27:47;3.78;;;0.73;;
77350;SDS011;66420;50.246;14.320;2024-03-29T10:30:32;1.35;;;0.50;;
77350;SDS011;66420;50.246;14.320;2024-03-29T10:33:17;1.60;;;0.57;;
77350;SDS011;66420;50.246;14.320;2024-03-29T10:36:02;0.82;;;0.43;;
77350;SDS011;66420;50.246;14.320;2024-03-29T10:38:52;4.15;;;0.70;;
77350;SDS011;66420;50.246;14.320;2024-03-29T10:41:40;2.13;;;0.80;;
77350;SDS011;66420;50.246;14.320;2024-03-29T10:44:25;2.58;;;0.85;;
77350;SDS011;66420;50.246;14.320;2024-03-29T10:47:12;6.00;;;1.25;;
77350;SDS011;66420;50.246;14.320;2024-03-29T10:50:02;8.98;;;1.23;;
77350;SDS011;66420;50.246;14.320;2024-03-29T10:52:49;6.18;;;1.30;;
77350;SDS011;66420;50.246;14.320;2024-03-29T10:55:35;1.27;;;0.70;;
77350;SDS011;66420;50.246;14.320;2024-03-29T10:58:21;3.10;;;0.80;;
77350;SDS011;66420;50.246;14.320;2024-03-29T11:01:08;1.77;;;0.68;;
77350;SDS011;66420;50.246;14.320;2024-03-29T11:03:58;2.60;;;0.63;;
77350;SDS011;66420;50.246;14.320;2024-03-29T11:06:50;1.50;;;0.60;;
77350;SDS011;66420;50.246;14.320;2024-03-29T11:12:24;1.00;;;0.60;;
77350;SDS011;66420;50.246;14.320;2024-03-29T11:15:12;1.48;;;0.50;;
77350;SDS011;66420;50.246;14.320;2024-03-29T11:18:07;1.30;;;0.40;;
77350;SDS011;66420;50.246;14.320;2024-03-29T11:20:54;1.38;;;0.50;;
77350;SDS011;66420;50.246;14.320;2024-03-29T11:23:41;1.23;;;0.50;;
77350;SDS011;66420;50.246;14.320;2024-03-29T11:26:25;3.08;;;0.60;;
77350;SDS011;66420;50.246;14.320;2024-03-29T11:29:22;1.95;;;0.60;;
77350;SDS011;66420;50.246;14.320;2024-03-29T11:32:08;2.28;;;0.70;;
77350;SDS011;66420;50.246;14.320;2024-03-29T11:34:53;1.40;;;0.60;;
77350;SDS011;66420;50.246;14.320;2024-03-29T11:37:39;0.73;;;0.40;;
77350;SDS011;66420;50.246;14.320;2024-03-29T11:40:29;1.98;;;0.50;;
77350;SDS011;66420;50.246;14.320;2024-03-29T11:43:14;2.63;;;0.65;;
77350;SDS011;66420;50.246;14.320;2024-03-29T11:45:59;0.73;;;0.50;;
77350;SDS011;66420;50.246;14.320;2024-03-29T11:48:45;2.15;;;0.40;;
77350;SDS011;66420;50.246;14.320;2024-03-29T11:51:33;1.27;;;0.40;;
77350;SDS011;66420;50.246;14.320;2024-03-29T11:54:18;1.70;;;0.55;;
77350;SDS011;66420;50.246;14.320;2024-03-29T11:57:03;0.80;;;0.50;;
77350;SDS011;66420;50.246;14.320;2024-03-29T11:59:48;3.15;;;0.88;;
77350;SDS011;66420;50.246;14.320;2024-03-29T12:02:33;1.52;;;0.55;;
77350;SDS011;66420;50.246;14.320;2024-03-29T12:05:18;2.42;;;0.70;;
77350;SDS011;66420;50.246;14.320;2024-03-29T12:08:03;1.40;;;0.50;;
77350;SDS011;66420;50.246;14.320;2024-03-29T12:10:49;1.30;;;0.50;;
77350;SDS011;66420;50.246;14.320;2024-03-29T12:13:34;1.20;;;0.65;;
77350;SDS011;66420;50.246;14.320;2024-03-29T12:16:18;1.60;;;0.70;;
77350;SDS011;66420;50.246;14.320;2024-03-29T12:19:03;1.20;;;0.65;;
77350;SDS011;66420;50.246;14.320;2024-03-29T12:21:48;3.53;;;0.80;;
77350;SDS011;66420;50.246;14.320;2024-03-29T12:24:34;1.00;;;0.50;;
77350;SDS011;66420;50.246;14.320;2024-03-29T12:27:18;1.90;;;0.60;;
77350;SDS011;66420;50.246;14.320;2024-03-29T12:30:04;1.17;;;0.40;;
77350;SDS011;66420;50.246;14.320;2024-03-29T12:35:55;1.38;;;0.68;;
77350;SDS011;66420;50.246;14.320;2024-03-29T12:38:42;1.27;;;0.60;;
77350;SDS011;66420;50.246;14.320;2024-03-29T12:41:29;1.38;;;0.55;;
77350;SDS011;66420;50.246;14.320;2024-03-29T12:44:14;1.40;;;0.50;;
77350;SDS011;66420;50.246;14.320;2024-03-29T12:46:59;1.95;;;0.55;;
77350;SDS011;66420;50.246;14.320;2024-03-29T12:49:45;0.98;;;0.50;;
77350;SDS011;66420;50.246;14.320;2024-03-29T12:52:39;0.98;;;0.50;;
77350;SDS011;66420;50.246;14.320;2024-03-29T12:55:25;1.00;;;0.38;;
77350;SDS011;66420;50.246;14.320;2024-03-29T12:58:20;0.93;;;0.55;;
77350;SDS011;66420;50.246;14.320;2024-03-29T13:01:06;1.08;;;0.57;;
77350;SDS011;66420;50.246;14.320;2024-03-29T13:03:51;1.38;;;0.50;;
77350;SDS011;66420;50.246;14.320;2024-03-29T13:06:36;1.27;;;0.50;;
77350;SDS011;66420;50.246;14.320;2024-03-29T13:09:21;1.20;;;0.40;;
77350;SDS011;66420;50.246;14.320;2024-03-29T13:12:06;1.48;;;0.40;;
77350;SDS011;66420;50.246;14.320;2024-03-29T13:14:51;0.93;;;0.47;;
77350;SDS011;66420;50.246;14.320;2024-03-29T13:17:36;2.58;;;0.60;;
77350;SDS011;66420;50.246;14.320;2024-03-29T13:20:22;1.40;;;0.60;;
77350;SDS011;66420;50.246;14.320;2024-03-29T13:23:08;2.03;;;0.60;;
77350;SDS011;66420;50.246;14.320;2024-03-29T13:25:53;1.23;;;0.60;;
77350;SDS011;66420;50.246;14.320;2024-03-29T13:28:40;2.78;;;0.60;;
77350;SDS011;66420;50.246;14.320;2024-03-29T13:31:25;1.55;;;0.47;;
77350;SDS011;66420;50.246;14.320;2024-03-29T13:34:12;0.82;;;0.50;;
77350;SDS011;66420;50.246;14.320;2024-03-29T13:36:57;1.83;;;0.50;;
77350;SDS011;66420;50.246;14.320;2024-03-29T13:39:41;3.17;;;0.85;;
77350;SDS011;66420;50.246;14.320;2024-03-29T13:42:26;0.68;;;0.50;;
77350;SDS011;66420;50.246;14.320;2024-03-29T13:45:11;1.80;;;0.85;;
77350;SDS011;66420;50.246;14.320;2024-03-29T13:47:57;5.70;;;0.75;;
77350;SDS011;66420;50.246;14.320;2024-03-29T13:50:42;2.42;;;0.80;;
77350;SDS011;66420;50.246;14.320;2024-03-29T13:53:27;0.93;;;0.43;;
77350;SDS011;66420;50.246;14.320;2024-03-29T13:56:13;1.17;;;0.40;;
77350;SDS011;66420;50.246;14.320;2024-03-29T13:58:59;1.15;;;0.43;;
77350;SDS011;66420;50.246;14.320;2024-03-29T14:01:44;1.15;;;0.43;;
77350;SDS011;66420;50.246;14.320;2024-03-29T14:04:30;2.05;;;0.50;;
77350;SDS011;66420;50.246;14.320;2024-03-29T14:07:15;2.47;;;0.63;;
77350;SDS011;66420;50.246;14.320;2024-03-29T14:10:02;0.57;;;0.40;;
77350;SDS011;66420;50.246;14.320;2024-03-29T14:12:48;1.00;;;0.45;;
77350;SDS011;66420;50.246;14.320;2024-03-29T14:37:02;0.77;;;0.45;;
77350;SDS011;66420;50.246;14.320;2024-03-29T14:39:48;2.35;;;0.40;;
77350;SDS011;66420;50.246;14.320;2024-03-29T14:42:32;2.83;;;0.90;;
77350;SDS011;66420;50.246;14.320;2024-03-29T14:45:20;1.50;;;1.00;;
77350;SDS011;66420;50.246;14.320;2024-03-29T14:48:04;3.15;;;1.25;;
77350;SDS011;66420;50.246;14.320;2024-03-29T14:50:50;1.92;;;0.63;;
77350;SDS011;66420;50.246;14.320;2024-03-29T14:53:34;1.98;;;0.60;;
77350;SDS011;66420;50.246;14.320;2024-03-29T14:56:20;1.52;;;0.55;;
77350;SDS011;66420;50.246;14.320;2024-03-29T14:59:05;0.95;;;0.60;;
77350;SDS011;66420;50.246;14.320;2024-03-29T15:01:53;1.20;;;0.85;;
77350;SDS011;66420;50.246;14.320;2024-03-29T15:04:38;3.00;;;1.50;;
77350;SDS011;66420;50.246;14.320;2024-03-29T15:07:23;4.00;;;1.98;;
77350;SDS011;66420;50.246;14.320;2024-03-29T15:10:08;3.60;;;1.05;;
77350;SDS011;66420;50.246;14.320;2024-03-29T15:12:54;4.80;;;2.67;;
77350;SDS011;66420;50.246;14.320;2024-03-29T15:15:39;3.05;;;1.83;;
77350;SDS011;66420;50.246;14.320;2024-03-29T15:18:24;3.90;;;1.10;;
77350;SDS011;66420;50.246;14.320;2024-03-29T15:21:08;1.90;;;0.80;;
77350;SDS011;66420;50.246;14.320;2024-03-29T15:23:54;3.13;;;1.20;;
77350;SDS011;66420;50.246;14.320;2024-03-29T15:26:38;4.47;;;1.30;;
77350;SDS011;66420;50.246;14.320;2024-03-29T15:29:24;2.10;;;0.88;;
77350;SDS011;66420;50.246;14.320;2024-03-29T15:32:09;3.25;;;1.10;;
77350;SDS011;66420;50.246;14.320;2024-03-29T15:34:54;3.00;;;1.50;;
77350;SDS011;66420;50.246;14.320;2024-03-29T15:37:38;1.48;;;0.80;;
77350;SDS011;66420;50.246;14.320;2024-03-29T15:40:24;2.00;;;1.00;;
77350;SDS011;66420;50.246;14.320;2024-03-29T15:43:08;1.73;;;0.70;;
77350;SDS011;66420;50.246;14.320;2024-03-29T15:45:54;2.30;;;0.65;;
77350;SDS011;66420;50.246;14.320;2024-03-29T15:48:39;2.30;;;0.65;;
77350;SDS011;66420;50.246;14.320;2024-03-29T15:51:24;3.40;;;0.98;;
77350;SDS011;66420;50.246;14.320;2024-03-29T15:54:09;2.72;;;1.20;;
77350;SDS011;66420;50.246;14.320;2024-03-29T15:57:00;3.83;;;2.13;;
77350;SDS011;66420;50.246;14.320;2024-03-29T15:59:45;7.28;;;3.55;;
77350;SDS011;66420;50.246;14.320;2024-03-29T16:02:32;2.10;;;1.15;;
77350;SDS011;66420;50.246;14.320;2024-03-29T16:05:30;3.88;;;2.25;;
77350;SDS011;66420;50.246;14.320;2024-03-29T16:08:15;3.40;;;1.52;;
77350;SDS011;66420;50.246;14.320;2024-03-29T16:11:00;4.40;;;1.20;;
77350;SDS011;66420;50.246;14.320;2024-03-29T16:13:47;2.88;;;1.13;;
77350;SDS011;66420;50.246;14.320;2024-03-29T16:16:32;2.50;;;1.30;;
77350;SDS011;66420;50.246;14.320;2024-03-29T16:19:17;3.38;;;1.27;;
77350;SDS011;66420;50.246;14.320;2024-03-29T16:22:02;3.60;;;1.70;;
77350;SDS011;66420;50.246;14.320;2024-03-29T16:24:48;3.33;;;1.17;;
77350;SDS011;66420;50.246;14.320;2024-03-29T16:27:33;1.85;;;0.90;;
77350;SDS011;66420;50.246;14.320;2024-03-29T16:30:18;2.83;;;1.00;;
77350;SDS011;66420;50.246;14.320;2024-03-29T16:33:04;2.30;;;0.90;;
77350;SDS011;66420;50.246;14.320;2024-03-29T16:35:49;2.17;;;0.80;;
77350;SDS011;66420;50.246;14.320;2024-03-29T16:38:37;2.22;;;0.80;;
77350;SDS011;66420;50.246;14.320;2024-03-29T16:41:23;2.67;;;0.80;;
77350;SDS011;66420;50.246;14.320;2024-03-29T16:44:08;2.08;;;0.90;;
77350;SDS011;66420;50.246;14.320;2024-03-29T16:46:54;2.65;;;0.93;;
77350;SDS011;66420;50.246;14.320;2024-03-29T16:49:38;2.80;;;1.00;;